Waynesville, Illinois
Current Conditions -  °F | °C
As of 9:55 PM on Thursday 18 Dec 2014 (Local Time) from KAAA Reporting Station
Overcast Overcast  
Wind Chill: 28°   Ceiling: 4600
Heat Index: 28°   Visibility: 10mi
Dew Point: 23°   Wind: 0mph
Humidity: 81%   Direction: NA
Pressure: 30.3"   Gusts: NA
Location:  40.24°N, 89.12°W
Report Text: KAAA 190355Z AUTO 00000KT 10SM OVC046 M02/M05 A3030 RMK AO2 T10201048
Loading
Personal Weather Stations






























Interactive Weather Map New forecast layout! Learn more

10-Day Weather Forecast

Advertisements
Track Severe Weather on mobile